SPJ weather

San Jose Produce Airport
Reforma, Chiapas, Mexico

Public forecast

Using degrees Celsius for public forecast. Weather courtesy of forecast.io.

Closest aviation weather report (METAR) to San Jose Produce Airport

Closest report is Carlos Rovirosa Pérez International Airport, 24.9 nm (46.1 km) E. Retrieved 2019/10/22 02:43 UTC (0 seconds ago):

MMVA 220243Z 04004KT 6SM SKC 28/27 A2984 RMK SLP099 52021 900 HZY

Closest aviation forecast (TAF) to San Jose Produce Airport

Forecast is more than 6 hours old.

Closest forecast is Carlos Rovirosa Pérez International Airport, 24.9 nm (46.1 km) E. Retrieved 2019/10/21 18:55 UTC (8 hours ago):

TAF MMVA 211648Z 2118/2218 06010KT P6SM SCT015 FM220600 12010KT 5SM HZ SCT015 TEMPO 2212/2216 2SM BR BKN005 FM221600 12010KT 5SM HZ BKN015